sensor_id;sensor_type;location;lat;lon;timestamp;temperature;humidity
28835;DHT22;15969;51.536;11.884;2023-06-10T00:01:58;17.30;99.90
28835;DHT22;15969;51.536;11.884;2023-06-10T00:04:25;17.20;99.90
28835;DHT22;15969;51.536;11.884;2023-06-10T00:06:52;17.20;99.90
28835;DHT22;15969;51.536;11.884;2023-06-10T00:09:19;17.10;99.90
28835;DHT22;15969;51.536;11.884;2023-06-10T00:11:47;17.20;99.90
28835;DHT22;15969;51.536;11.884;2023-06-10T00:14:13;17.20;99.90
28835;DHT22;15969;51.536;11.884;2023-06-10T00:16:38;17.10;99.90
28835;DHT22;15969;51.536;11.884;2023-06-10T00:19:05;17.10;99.90
28835;DHT22;15969;51.536;11.884;2023-06-10T00:21:32;17.10;99.90
28835;DHT22;15969;51.536;11.884;2023-06-10T00:24:04;17.10;99.90
28835;DHT22;15969;51.536;11.884;2023-06-10T00:26:30;17.10;99.90
28835;DHT22;15969;51.536;11.884;2023-06-10T00:28:57;17.00;99.90
28835;DHT22;15969;51.536;11.884;2023-06-10T00:31:22;17.20;99.90
28835;DHT22;15969;51.536;11.884;2023-06-10T00:33:48;17.00;99.90
28835;DHT22;15969;51.536;11.884;2023-06-10T00:36:14;17.00;99.90
28835;DHT22;15969;51.536;11.884;2023-06-10T00:38:40;17.00;99.90
28835;DHT22;15969;51.536;11.884;2023-06-10T00:41:06;17.00;99.90
28835;DHT22;15969;51.536;11.884;2023-06-10T00:43:32;17.00;99.90
28835;DHT22;15969;51.536;11.884;2023-06-10T00:45:58;17.00;99.90
28835;DHT22;15969;51.536;11.884;2023-06-10T00:48:24;17.00;99.90
28835;DHT22;15969;51.536;11.884;2023-06-10T00:50:50;17.00;99.90
28835;DHT22;15969;51.536;11.884;2023-06-10T00:53:16;17.00;99.90
28835;DHT22;15969;51.536;11.884;2023-06-10T00:55:43;17.10;99.90
28835;DHT22;15969;51.536;11.884;2023-06-10T00:58:08;17.00;99.90
28835;DHT22;15969;51.536;11.884;2023-06-10T01:00:34;17.00;99.90
28835;DHT22;15969;51.536;11.884;2023-06-10T01:03:00;17.00;99.90
28835;DHT22;15969;51.536;11.884;2023-06-10T01:05:26;16.80;99.90
28835;DHT22;15969;51.536;11.884;2023-06-10T01:07:56;17.00;99.90
28835;DHT22;15969;51.536;11.884;2023-06-10T01:10:36;17.00;99.90
28835;DHT22;15969;51.536;11.884;2023-06-10T01:13:12;16.90;99.90
28835;DHT22;15969;51.536;11.884;2023-06-10T01:15:39;17.00;99.90
28835;DHT22;15969;51.536;11.884;2023-06-10T01:18:07;16.90;99.90
28835;DHT22;15969;51.536;11.884;2023-06-10T01:20:41;17.00;99.90
28835;DHT22;15969;51.536;11.884;2023-06-10T01:23:11;16.90;99.90
28835;DHT22;15969;51.536;11.884;2023-06-10T01:25:39;16.90;99.90
28835;DHT22;15969;51.536;11.884;2023-06-10T01:28:18;16.90;99.90
28835;DHT22;15969;51.536;11.884;2023-06-10T01:33:31;16.80;99.90
28835;DHT22;15969;51.536;11.884;2023-06-10T01:36:02;16.80;99.90
28835;DHT22;15969;51.536;11.884;2023-06-10T01:38:32;16.70;99.90
28835;DHT22;15969;51.536;11.884;2023-06-10T01:40:59;16.60;99.90
28835;DHT22;15969;51.536;11.884;2023-06-10T01:43:26;16.60;99.90
28835;DHT22;15969;51.536;11.884;2023-06-10T01:45:51;16.50;99.90
28835;DHT22;15969;51.536;11.884;2023-06-10T01:48:17;16.40;99.90
28835;DHT22;15969;51.536;11.884;2023-06-10T01:50:43;16.50;99.90
28835;DHT22;15969;51.536;11.884;2023-06-10T01:53:09;16.40;99.90
28835;DHT22;15969;51.536;11.884;2023-06-10T01:55:35;16.40;99.90
28835;DHT22;15969;51.536;11.884;2023-06-10T01:58:01;16.30;99.90
28835;DHT22;15969;51.536;11.884;2023-06-10T02:00:26;16.30;99.90
28835;DHT22;15969;51.536;11.884;2023-06-10T02:02:52;16.30;99.90
28835;DHT22;15969;51.536;11.884;2023-06-10T02:05:18;16.20;99.90
28835;DHT22;15969;51.536;11.884;2023-06-10T02:07:44;16.20;99.90
28835;DHT22;15969;51.536;11.884;2023-06-10T02:10:10;16.20;99.90
28835;DHT22;15969;51.536;11.884;2023-06-10T02:12:36;16.10;99.90
28835;DHT22;15969;51.536;11.884;2023-06-10T02:15:01;16.10;99.90
28835;DHT22;15969;51.536;11.884;2023-06-10T02:17:27;16.10;99.90
28835;DHT22;15969;51.536;11.884;2023-06-10T02:19:54;16.00;99.90
28835;DHT22;15969;51.536;11.884;2023-06-10T02:22:22;16.00;99.90
28835;DHT22;15969;51.536;11.884;2023-06-10T02:24:48;16.00;99.90
28835;DHT22;15969;51.536;11.884;2023-06-10T02:27:15;15.90;99.90
28835;DHT22;15969;51.536;11.884;2023-06-10T02:29:41;15.90;99.90
28835;DHT22;15969;51.536;11.884;2023-06-10T02:32:07;15.90;99.90
28835;DHT22;15969;51.536;11.884;2023-06-10T02:34:33;15.80;99.90
28835;DHT22;15969;51.536;11.884;2023-06-10T02:36:59;15.80;99.90
28835;DHT22;15969;51.536;11.884;2023-06-10T02:39:26;15.70;99.90
28835;DHT22;15969;51.536;11.884;2023-06-10T02:41:52;15.70;99.90
28835;DHT22;15969;51.536;11.884;2023-06-10T02:44:18;15.60;99.90
28835;DHT22;15969;51.536;11.884;2023-06-10T02:46:44;15.60;99.90
28835;DHT22;15969;51.536;11.884;2023-06-10T02:49:11;15.50;99.90
28835;DHT22;15969;51.536;11.884;2023-06-10T02:51:38;15.50;99.90
28835;DHT22;15969;51.536;11.884;2023-06-10T02:54:04;15.50;99.90
28835;DHT22;15969;51.536;11.884;2023-06-10T02:56:30;15.50;99.90
28835;DHT22;15969;51.536;11.884;2023-06-10T02:58:57;15.40;99.90
28835;DHT22;15969;51.536;11.884;2023-06-10T03:01:23;15.30;99.90
28835;DHT22;15969;51.536;11.884;2023-06-10T03:03:48;15.30;99.90
28835;DHT22;15969;51.536;11.884;2023-06-10T03:06:16;15.30;99.90
28835;DHT22;15969;51.536;11.884;2023-06-10T03:08:42;15.20;99.90
28835;DHT22;15969;51.536;11.884;2023-06-10T03:11:08;15.20;99.90
28835;DHT22;15969;51.536;11.884;2023-06-10T03:13:34;15.10;99.90
28835;DHT22;15969;51.536;11.884;2023-06-10T03:15:59;15.10;99.90
28835;DHT22;15969;51.536;11.884;2023-06-10T03:18:26;15.10;99.90
28835;DHT22;15969;51.536;11.884;2023-06-10T03:20:52;15.10;99.90
28835;DHT22;15969;51.536;11.884;2023-06-10T03:23:18;15.10;99.90
28835;DHT22;15969;51.536;11.884;2023-06-10T03:25:44;15.00;99.90
28835;DHT22;15969;51.536;11.884;2023-06-10T03:28:10;15.10;99.90
28835;DHT22;15969;51.536;11.884;2023-06-10T03:30:36;15.00;99.90
28835;DHT22;15969;51.536;11.884;2023-06-10T03:33:02;15.00;99.90
28835;DHT22;15969;51.536;11.884;2023-06-10T03:35:27;15.00;99.90
28835;DHT22;15969;51.536;11.884;2023-06-10T03:37:53;15.00;99.90
28835;DHT22;15969;51.536;11.884;2023-06-10T03:40:19;15.00;99.90
28835;DHT22;15969;51.536;11.884;2023-06-10T03:42:44;14.90;99.90
28835;DHT22;15969;51.536;11.884;2023-06-10T03:45:10;14.90;99.90
28835;DHT22;15969;51.536;11.884;2023-06-10T03:47:37;14.90;99.90
28835;DHT22;15969;51.536;11.884;2023-06-10T03:50:06;14.80;99.90
28835;DHT22;15969;51.536;11.884;2023-06-10T03:52:33;14.90;99.90
28835;DHT22;15969;51.536;11.884;2023-06-10T03:55:00;14.90;99.90
28835;DHT22;15969;51.536;11.884;2023-06-10T03:57:26;14.90;99.90
28835;DHT22;15969;51.536;11.884;2023-06-10T03:59:52;14.90;99.90
28835;DHT22;15969;51.536;11.884;2023-06-10T04:02:17;14.90;99.90
28835;DHT22;15969;51.536;11.884;2023-06-10T04:04:43;14.90;99.90
28835;DHT22;15969;51.536;11.884;2023-06-10T04:07:09;14.90;99.90
28835;DHT22;15969;51.536;11.884;2023-06-10T04:09:35;14.90;99.90
28835;DHT22;15969;51.536;11.884;2023-06-10T04:12:01;14.90;99.90
28835;DHT22;15969;51.536;11.884;2023-06-10T04:14:27;15.00;99.90
28835;DHT22;15969;51.536;11.884;2023-06-10T04:16:53;15.00;99.90
28835;DHT22;15969;51.536;11.884;2023-06-10T04:19:19;15.00;99.90
28835;DHT22;15969;51.536;11.884;2023-06-10T04:21:45;14.90;99.90
28835;DHT22;15969;51.536;11.884;2023-06-10T04:24:11;15.00;99.90
28835;DHT22;15969;51.536;11.884;2023-06-10T04:26:37;15.00;99.90
28835;DHT22;15969;51.536;11.884;2023-06-10T04:29:03;15.10;99.90
28835;DHT22;15969;51.536;11.884;2023-06-10T04:31:29;15.00;99.90
28835;DHT22;15969;51.536;11.884;2023-06-10T04:33:54;15.00;99.90
28835;DHT22;15969;51.536;11.884;2023-06-10T04:36:20;15.00;99.90
28835;DHT22;15969;51.536;11.884;2023-06-10T04:38:46;14.90;99.90
28835;DHT22;15969;51.536;11.884;2023-06-10T04:41:12;15.00;99.90
28835;DHT22;15969;51.536;11.884;2023-06-10T04:43:38;15.10;99.90
28835;DHT22;15969;51.536;11.884;2023-06-10T04:46:04;15.10;99.90
28835;DHT22;15969;51.536;11.884;2023-06-10T04:48:29;15.10;99.90
28835;DHT22;15969;51.536;11.884;2023-06-10T04:50:55;15.10;99.90
28835;DHT22;15969;51.536;11.884;2023-06-10T04:53:22;15.20;99.90
28835;DHT22;15969;51.536;11.884;2023-06-10T04:55:48;15.20;99.90
28835;DHT22;15969;51.536;11.884;2023-06-10T04:58:14;15.30;99.90
28835;DHT22;15969;51.536;11.884;2023-06-10T05:00:40;15.40;99.90
28835;DHT22;15969;51.536;11.884;2023-06-10T05:03:06;15.40;99.90
28835;DHT22;15969;51.536;11.884;2023-06-10T05:05:32;15.40;99.90
28835;DHT22;15969;51.536;11.884;2023-06-10T05:07:58;15.40;99.90
28835;DHT22;15969;51.536;11.884;2023-06-10T05:10:23;15.40;99.90
28835;DHT22;15969;51.536;11.884;2023-06-10T05:12:49;15.40;99.90
28835;DHT22;15969;51.536;11.884;2023-06-10T05:15:15;15.30;99.90
28835;DHT22;15969;51.536;11.884;2023-06-10T05:17:40;15.20;99.90
28835;DHT22;15969;51.536;11.884;2023-06-10T05:20:06;15.30;99.90
28835;DHT22;15969;51.536;11.884;2023-06-10T05:22:33;15.30;99.90
28835;DHT22;15969;51.536;11.884;2023-06-10T05:24:59;15.20;99.90
28835;DHT22;15969;51.536;11.884;2023-06-10T05:27:25;15.20;99.90
28835;DHT22;15969;51.536;11.884;2023-06-10T05:29:51;15.10;99.90
28835;DHT22;15969;51.536;11.884;2023-06-10T05:32:17;15.20;99.90
28835;DHT22;15969;51.536;11.884;2023-06-10T05:34:43;15.20;99.90
28835;DHT22;15969;51.536;11.884;2023-06-10T05:37:09;15.30;99.90
28835;DHT22;15969;51.536;11.884;2023-06-10T05:39:35;15.40;99.90
28835;DHT22;15969;51.536;11.884;2023-06-10T05:42:06;15.40;99.90
28835;DHT22;15969;51.536;11.884;2023-06-10T05:44:32;15.40;99.90
28835;DHT22;15969;51.536;11.884;2023-06-10T05:46:58;15.50;99.90
28835;DHT22;15969;51.536;11.884;2023-06-10T05:49:24;15.50;99.90
28835;DHT22;15969;51.536;11.884;2023-06-10T05:51:50;15.70;99.90
28835;DHT22;15969;51.536;11.884;2023-06-10T05:54:18;15.70;99.90
28835;DHT22;15969;51.536;11.884;2023-06-10T05:56:44;15.80;99.90
28835;DHT22;15969;51.536;11.884;2023-06-10T05:59:09;15.80;99.90
28835;DHT22;15969;51.536;11.884;2023-06-10T06:01:35;15.80;99.90
28835;DHT22;15969;51.536;11.884;2023-06-10T06:04:01;15.80;99.90
28835;DHT22;15969;51.536;11.884;2023-06-10T06:06:26;15.90;99.90
28835;DHT22;15969;51.536;11.884;2023-06-10T06:08:52;16.00;99.90
28835;DHT22;15969;51.536;11.884;2023-06-10T06:11:18;16.00;99.90
28835;DHT22;15969;51.536;11.884;2023-06-10T06:13:43;16.10;99.90
28835;DHT22;15969;51.536;11.884;2023-06-10T06:16:09;16.10;99.90
28835;DHT22;15969;51.536;11.884;2023-06-10T06:18:35;16.20;99.90
28835;DHT22;15969;51.536;11.884;2023-06-10T06:21:00;16.30;99.90
28835;DHT22;15969;51.536;11.884;2023-06-10T06:23:26;16.30;99.90
28835;DHT22;15969;51.536;11.884;2023-06-10T06:25:52;16.30;99.90
28835;DHT22;15969;51.536;11.884;2023-06-10T06:28:18;16.30;99.90
28835;DHT22;15969;51.536;11.884;2023-06-10T06:30:46;16.50;99.90
28835;DHT22;15969;51.536;11.884;2023-06-10T06:33:12;16.60;99.90
28835;DHT22;15969;51.536;11.884;2023-06-10T06:35:37;16.70;99.90
28835;DHT22;15969;51.536;11.884;2023-06-10T06:38:03;16.80;99.90
28835;DHT22;15969;51.536;11.884;2023-06-10T06:40:29;17.00;99.90
28835;DHT22;15969;51.536;11.884;2023-06-10T06:42:55;16.90;99.90
28835;DHT22;15969;51.536;11.884;2023-06-10T06:45:21;16.90;99.90
28835;DHT22;15969;51.536;11.884;2023-06-10T06:47:46;17.00;99.90
28835;DHT22;15969;51.536;11.884;2023-06-10T06:50:12;17.10;99.90
28835;DHT22;15969;51.536;11.884;2023-06-10T06:52:38;17.10;99.90
28835;DHT22;15969;51.536;11.884;2023-06-10T06:55:04;17.10;99.90
28835;DHT22;15969;51.536;11.884;2023-06-10T06:57:30;17.20;99.90
28835;DHT22;15969;51.536;11.884;2023-06-10T06:59:56;17.30;99.90
28835;DHT22;15969;51.536;11.884;2023-06-10T07:02:21;17.40;99.90
28835;DHT22;15969;51.536;11.884;2023-06-10T07:04:47;17.40;99.90
28835;DHT22;15969;51.536;11.884;2023-06-10T07:07:14;17.40;99.90
28835;DHT22;15969;51.536;11.884;2023-06-10T07:12:07;17.70;99.90
28835;DHT22;15969;51.536;11.884;2023-06-10T07:14:33;17.80;99.90
28835;DHT22;15969;51.536;11.884;2023-06-10T07:16:59;18.00;99.90
28835;DHT22;15969;51.536;11.884;2023-06-10T07:23:17;20.40;99.90
28835;DHT22;15969;51.536;11.884;2023-06-10T07:25:43;18.40;99.90
28835;DHT22;15969;51.536;11.884;2023-06-10T07:28:08;18.50;99.90
28835;DHT22;15969;51.536;11.884;2023-06-10T07:30:34;18.70;99.90
28835;DHT22;15969;51.536;11.884;2023-06-10T07:33:00;18.80;99.90
28835;DHT22;15969;51.536;11.884;2023-06-10T07:35:27;18.90;99.90
28835;DHT22;15969;51.536;11.884;2023-06-10T07:37:53;19.00;99.90
28835;DHT22;15969;51.536;11.884;2023-06-10T07:40:18;19.10;99.90
28835;DHT22;15969;51.536;11.884;2023-06-10T07:42:44;19.20;99.90
28835;DHT22;15969;51.536;11.884;2023-06-10T07:45:10;19.40;99.90
28835;DHT22;15969;51.536;11.884;2023-06-10T07:47:36;19.50;99.90
28835;DHT22;15969;51.536;11.884;2023-06-10T07:50:01;19.70;99.90
28835;DHT22;15969;51.536;11.884;2023-06-10T07:52:27;19.70;99.90
28835;DHT22;15969;51.536;11.884;2023-06-10T07:54:54;19.80;99.90
28835;DHT22;15969;51.536;11.884;2023-06-10T07:57:19;19.90;99.90
28835;DHT22;15969;51.536;11.884;2023-06-10T07:59:45;20.10;99.90
28835;DHT22;15969;51.536;11.884;2023-06-10T08:02:11;20.30;99.90
28835;DHT22;15969;51.536;11.884;2023-06-10T08:04:36;20.30;99.90
28835;DHT22;15969;51.536;11.884;2023-06-10T08:07:02;20.30;99.90
28835;DHT22;15969;51.536;11.884;2023-06-10T08:09:28;20.50;99.90
28835;DHT22;15969;51.536;11.884;2023-06-10T08:11:54;20.60;99.90
28835;DHT22;15969;51.536;11.884;2023-06-10T08:14:21;20.80;99.90
28835;DHT22;15969;51.536;11.884;2023-06-10T08:16:46;20.90;99.90
28835;DHT22;15969;51.536;11.884;2023-06-10T08:19:12;21.00;99.90
28835;DHT22;15969;51.536;11.884;2023-06-10T08:21:38;21.00;99.90
28835;DHT22;15969;51.536;11.884;2023-06-10T08:24:08;21.10;99.90
28835;DHT22;15969;51.536;11.884;2023-06-10T08:26:34;21.20;99.90
28835;DHT22;15969;51.536;11.884;2023-06-10T08:29:00;21.30;99.90
28835;DHT22;15969;51.536;11.884;2023-06-10T08:31:26;21.30;99.90
28835;DHT22;15969;51.536;11.884;2023-06-10T08:33:51;21.40;99.90
28835;DHT22;15969;51.536;11.884;2023-06-10T08:36:17;21.50;99.90
28835;DHT22;15969;51.536;11.884;2023-06-10T08:38:43;21.60;99.90
28835;DHT22;15969;51.536;11.884;2023-06-10T08:41:09;21.80;99.90
28835;DHT22;15969;51.536;11.884;2023-06-10T08:43:45;21.90;99.90
28835;DHT22;15969;51.536;11.884;2023-06-10T08:46:14;22.10;99.90
28835;DHT22;15969;51.536;11.884;2023-06-10T08:48:43;22.30;99.90
28835;DHT22;15969;51.536;11.884;2023-06-10T08:51:11;22.30;99.90
28835;DHT22;15969;51.536;11.884;2023-06-10T08:53:41;22.40;99.90
28835;DHT22;15969;51.536;11.884;2023-06-10T08:56:14;22.50;99.90
28835;DHT22;15969;51.536;11.884;2023-06-10T08:58:41;22.50;99.90
28835;DHT22;15969;51.536;11.884;2023-06-10T09:01:07;22.70;99.90
28835;DHT22;15969;51.536;11.884;2023-06-10T09:03:36;22.70;99.90
28835;DHT22;15969;51.536;11.884;2023-06-10T09:06:04;22.80;99.90
28835;DHT22;15969;51.536;11.884;2023-06-10T09:08:33;22.80;99.90
28835;DHT22;15969;51.536;11.884;2023-06-10T09:10:58;22.80;99.90
28835;DHT22;15969;51.536;11.884;2023-06-10T09:13:24;22.80;99.90
28835;DHT22;15969;51.536;11.884;2023-06-10T09:15:50;23.00;99.90
28835;DHT22;15969;51.536;11.884;2023-06-10T09:18:16;23.00;99.90
28835;DHT22;15969;51.536;11.884;2023-06-10T09:20:43;23.20;99.90
28835;DHT22;15969;51.536;11.884;2023-06-10T09:23:09;23.20;99.90
28835;DHT22;15969;51.536;11.884;2023-06-10T09:25:38;23.50;99.90
28835;DHT22;15969;51.536;11.884;2023-06-10T09:28:08;23.50;99.90
28835;DHT22;15969;51.536;11.884;2023-06-10T09:30:38;23.70;99.90
28835;DHT22;15969;51.536;11.884;2023-06-10T09:33:11;23.90;99.90
28835;DHT22;15969;51.536;11.884;2023-06-10T09:35:46;24.00;99.90
28835;DHT22;15969;51.536;11.884;2023-06-10T09:38:23;24.10;99.90
28835;DHT22;15969;51.536;11.884;2023-06-10T09:40:53;24.20;99.90
28835;DHT22;15969;51.536;11.884;2023-06-10T09:43:19;24.30;99.90
28835;DHT22;15969;51.536;11.884;2023-06-10T09:45:48;24.40;99.90
28835;DHT22;15969;51.536;11.884;2023-06-10T09:48:14;24.60;99.90
28835;DHT22;15969;51.536;11.884;2023-06-10T09:50:44;24.60;99.90
28835;DHT22;15969;51.536;11.884;2023-06-10T09:53:10;24.70;99.90
28835;DHT22;15969;51.536;11.884;2023-06-10T09:55:40;24.80;99.90
28835;DHT22;15969;51.536;11.884;2023-06-10T09:58:06;25.00;99.90
28835;DHT22;15969;51.536;11.884;2023-06-10T10:00:33;25.00;99.90
28835;DHT22;15969;51.536;11.884;2023-06-10T10:03:00;25.20;99.90
28835;DHT22;15969;51.536;11.884;2023-06-10T10:05:27;25.30;99.90
28835;DHT22;15969;51.536;11.884;2023-06-10T10:07:53;25.30;99.90
28835;DHT22;15969;51.536;11.884;2023-06-10T10:10:20;25.40;99.90
28835;DHT22;15969;51.536;11.884;2023-06-10T10:12:48;25.60;99.90
28835;DHT22;15969;51.536;11.884;2023-06-10T10:15:17;25.70;99.90
28835;DHT22;15969;51.536;11.884;2023-06-10T10:17:50;25.80;99.90
28835;DHT22;15969;51.536;11.884;2023-06-10T10:20:22;25.90;99.90
28835;DHT22;15969;51.536;11.884;2023-06-10T10:22:51;26.00;99.80
28835;DHT22;15969;51.536;11.884;2023-06-10T10:25:24;26.10;98.70
28835;DHT22;15969;51.536;11.884;2023-06-10T10:28:13;26.30;99.10
28835;DHT22;15969;51.536;11.884;2023-06-10T10:30:42;26.60;99.30
28835;DHT22;15969;51.536;11.884;2023-06-10T10:33:19;26.60;98.00
28835;DHT22;15969;51.536;11.884;2023-06-10T10:35:47;26.70;97.90
28835;DHT22;15969;51.536;11.884;2023-06-10T10:38:13;26.70;97.50
28835;DHT22;15969;51.536;11.884;2023-06-10T10:40:40;26.80;97.50
28835;DHT22;15969;51.536;11.884;2023-06-10T10:43:06;26.80;97.70
28835;DHT22;15969;51.536;11.884;2023-06-10T10:45:35;26.90;96.70
28835;DHT22;15969;51.536;11.884;2023-06-10T10:48:05;27.00;95.60
28835;DHT22;15969;51.536;11.884;2023-06-10T10:50:38;27.10;95.90
28835;DHT22;15969;51.536;11.884;2023-06-10T10:53:05;27.40;95.10
28835;DHT22;15969;51.536;11.884;2023-06-10T10:55:31;27.50;94.50
28835;DHT22;15969;51.536;11.884;2023-06-10T10:57:59;27.60;94.00
28835;DHT22;15969;51.536;11.884;2023-06-10T11:00:35;27.80;94.70
28835;DHT22;15969;51.536;11.884;2023-06-10T11:03:13;27.90;94.00
28835;DHT22;15969;51.536;11.884;2023-06-10T11:05:43;27.90;93.00
28835;DHT22;15969;51.536;11.884;2023-06-10T11:08:13;27.90;93.50
28835;DHT22;15969;51.536;11.884;2023-06-10T11:10:41;27.90;93.00
28835;DHT22;15969;51.536;11.884;2023-06-10T11:13:20;27.90;92.80
28835;DHT22;15969;51.536;11.884;2023-06-10T11:15:48;28.10;93.30
28835;DHT22;15969;51.536;11.884;2023-06-10T11:18:23;28.10;93.50
28835;DHT22;15969;51.536;11.884;2023-06-10T11:31:30;28.60;91.20
28835;DHT22;15969;51.536;11.884;2023-06-10T11:34:04;28.50;90.90
28835;DHT22;15969;51.536;11.884;2023-06-10T11:36:33;28.40;91.20
28835;DHT22;15969;51.536;11.884;2023-06-10T11:39:04;28.50;91.70
28835;DHT22;15969;51.536;11.884;2023-06-10T11:41:31;28.60;92.00
28835;DHT22;15969;51.536;11.884;2023-06-10T11:44:20;28.70;91.80
28835;DHT22;15969;51.536;11.884;2023-06-10T11:46:47;28.80;91.10
28835;DHT22;15969;51.536;11.884;2023-06-10T11:49:13;28.90;90.30
28835;DHT22;15969;51.536;11.884;2023-06-10T11:51:40;29.10;91.30
28835;DHT22;15969;51.536;11.884;2023-06-10T11:54:14;29.20;90.10
28835;DHT22;15969;51.536;11.884;2023-06-10T11:56:40;29.30;90.40
28835;DHT22;15969;51.536;11.884;2023-06-10T11:59:06;29.20;87.90
28835;DHT22;15969;51.536;11.884;2023-06-10T12:01:35;29.10;88.50
28835;DHT22;15969;51.536;11.884;2023-06-10T12:04:08;29.20;87.40
28835;DHT22;15969;51.536;11.884;2023-06-10T12:06:44;29.30;88.80
28835;DHT22;15969;51.536;11.884;2023-06-10T12:09:21;29.40;89.30
28835;DHT22;15969;51.536;11.884;2023-06-10T12:11:51;29.50;87.90
28835;DHT22;15969;51.536;11.884;2023-06-10T12:14:56;29.40;88.40
28835;DHT22;15969;51.536;11.884;2023-06-10T12:19:59;29.50;90.40
28835;DHT22;15969;51.536;11.884;2023-06-10T12:22:25;29.70;86.20
28835;DHT22;15969;51.536;11.884;2023-06-10T12:24:59;29.70;86.30
28835;DHT22;15969;51.536;11.884;2023-06-10T12:27:27;29.60;85.80
28835;DHT22;15969;51.536;11.884;2023-06-10T12:29:56;29.80;86.50
28835;DHT22;15969;51.536;11.884;2023-06-10T12:32:45;29.90;87.30
28835;DHT22;15969;51.536;11.884;2023-06-10T12:35:13;30.00;83.90
28835;DHT22;15969;51.536;11.884;2023-06-10T12:37:41;30.10;84.40
28835;DHT22;15969;51.536;11.884;2023-06-10T12:40:07;30.00;82.50
28835;DHT22;15969;51.536;11.884;2023-06-10T12:42:35;30.20;83.00
28835;DHT22;15969;51.536;11.884;2023-06-10T12:45:03;30.20;81.60
28835;DHT22;15969;51.536;11.884;2023-06-10T12:47:30;30.30;80.30
28835;DHT22;15969;51.536;11.884;2023-06-10T12:49:58;30.40;80.50
28835;DHT22;15969;51.536;11.884;2023-06-10T12:52:25;30.30;78.90
28835;DHT22;15969;51.536;11.884;2023-06-10T12:54:50;30.40;78.90
28835;DHT22;15969;51.536;11.884;2023-06-10T12:57:17;30.30;79.80
28835;DHT22;15969;51.536;11.884;2023-06-10T12:59:43;30.40;77.90
28835;DHT22;15969;51.536;11.884;2023-06-10T13:02:15;30.30;77.30
28835;DHT22;15969;51.536;11.884;2023-06-10T13:04:43;30.20;80.50
28835;DHT22;15969;51.536;11.884;2023-06-10T13:07:09;30.20;77.50
28835;DHT22;15969;51.536;11.884;2023-06-10T13:09:36;30.10;76.80
28835;DHT22;15969;51.536;11.884;2023-06-10T13:12:02;30.30;77.10
28835;DHT22;15969;51.536;11.884;2023-06-10T13:14:27;30.30;77.20
28835;DHT22;15969;51.536;11.884;2023-06-10T13:16:54;30.60;77.10
28835;DHT22;15969;51.536;11.884;2023-06-10T13:19:20;30.70;75.80
28835;DHT22;15969;51.536;11.884;2023-06-10T13:21:47;30.80;76.40
28835;DHT22;15969;51.536;11.884;2023-06-10T13:24:13;30.80;79.20
28835;DHT22;15969;51.536;11.884;2023-06-10T13:26:39;30.80;77.40
28835;DHT22;15969;51.536;11.884;2023-06-10T13:29:04;30.90;76.80
28835;DHT22;15969;51.536;11.884;2023-06-10T13:33:57;31.00;93.40
28835;DHT22;15969;51.536;11.884;2023-06-10T13:36:24;31.10;76.90
28835;DHT22;15969;51.536;11.884;2023-06-10T13:38:49;31.10;84.00
28835;DHT22;15969;51.536;11.884;2023-06-10T13:41:15;31.00;93.60
28835;DHT22;15969;51.536;11.884;2023-06-10T13:43:41;30.90;98.80
28835;DHT22;15969;51.536;11.884;2023-06-10T13:46:07;30.40;99.30
28835;DHT22;15969;51.536;11.884;2023-06-10T13:48:32;30.20;99.20
28835;DHT22;15969;51.536;11.884;2023-06-10T13:50:58;29.90;93.70
28835;DHT22;15969;51.536;11.884;2023-06-10T13:53:25;30.00;92.50
28835;DHT22;15969;51.536;11.884;2023-06-10T13:55:51;29.90;90.20
28835;DHT22;15969;51.536;11.884;2023-06-10T13:58:16;29.70;90.60
28835;DHT22;15969;51.536;11.884;2023-06-10T14:00:42;28.70;90.70
28835;DHT22;15969;51.536;11.884;2023-06-10T14:03:08;27.90;91.70
28835;DHT22;15969;51.536;11.884;2023-06-10T14:05:34;27.90;92.50
28835;DHT22;15969;51.536;11.884;2023-06-10T14:08:00;28.00;91.20
28835;DHT22;15969;51.536;11.884;2023-06-10T14:10:26;28.20;90.00
28835;DHT22;15969;51.536;11.884;2023-06-10T14:12:51;28.20;89.50
28835;DHT22;15969;51.536;11.884;2023-06-10T14:15:17;28.40;90.20
28835;DHT22;15969;51.536;11.884;2023-06-10T14:17:43;28.20;89.70
28835;DHT22;15969;51.536;11.884;2023-06-10T14:20:09;28.10;86.60
28835;DHT22;15969;51.536;11.884;2023-06-10T14:22:35;28.10;84.20
28835;DHT22;15969;51.536;11.884;2023-06-10T14:25:00;27.70;81.70
28835;DHT22;15969;51.536;11.884;2023-06-10T14:27:26;27.20;81.30
28835;DHT22;15969;51.536;11.884;2023-06-10T14:29:52;26.80;82.60
28835;DHT22;15969;51.536;11.884;2023-06-10T14:32:17;26.60;83.20
28835;DHT22;15969;51.536;11.884;2023-06-10T14:34:43;26.30;90.10
28835;DHT22;15969;51.536;11.884;2023-06-10T14:37:10;25.80;94.20
28835;DHT22;15969;51.536;11.884;2023-06-10T14:39:36;25.40;96.20
28835;DHT22;15969;51.536;11.884;2023-06-10T14:42:01;25.20;98.00
28835;DHT22;15969;51.536;11.884;2023-06-10T14:44:27;25.00;99.70
28835;DHT22;15969;51.536;11.884;2023-06-10T14:46:53;24.80;99.90
28835;DHT22;15969;51.536;11.884;2023-06-10T14:49:19;24.60;99.90
28835;DHT22;15969;51.536;11.884;2023-06-10T14:51:44;24.10;99.90
28835;DHT22;15969;51.536;11.884;2023-06-10T14:54:10;23.90;99.90
28835;DHT22;15969;51.536;11.884;2023-06-10T14:56:36;23.70;99.90
28835;DHT22;15969;51.536;11.884;2023-06-10T14:59:02;23.20;99.90
28835;DHT22;15969;51.536;11.884;2023-06-10T15:03:53;22.80;99.90
28835;DHT22;15969;51.536;11.884;2023-06-10T15:06:19;22.30;99.90
28835;DHT22;15969;51.536;11.884;2023-06-10T15:08:48;22.20;99.90
28835;DHT22;15969;51.536;11.884;2023-06-10T15:11:16;21.90;99.90
28835;DHT22;15969;51.536;11.884;2023-06-10T15:13:42;21.70;99.90
28835;DHT22;15969;51.536;11.884;2023-06-10T15:16:08;21.50;99.90
28835;DHT22;15969;51.536;11.884;2023-06-10T15:18:33;21.30;99.90
28835;DHT22;15969;51.536;11.884;2023-06-10T15:20:59;21.20;99.90
28835;DHT22;15969;51.536;11.884;2023-06-10T15:23:25;21.20;99.90
28835;DHT22;15969;51.536;11.884;2023-06-10T15:25:51;21.40;99.90
28835;DHT22;15969;51.536;11.884;2023-06-10T15:28:16;21.60;99.90
28835;DHT22;15969;51.536;11.884;2023-06-10T15:30:42;21.70;99.90
28835;DHT22;15969;51.536;11.884;2023-06-10T15:33:08;21.80;99.90
28835;DHT22;15969;51.536;11.884;2023-06-10T15:35:34;21.90;99.90
28835;DHT22;15969;51.536;11.884;2023-06-10T15:37:59;22.00;99.90
28835;DHT22;15969;51.536;11.884;2023-06-10T15:40:25;22.10;99.90
28835;DHT22;15969;51.536;11.884;2023-06-10T15:42:51;22.00;99.90